Udo Maru — JM6522 — position and weather

sailwx.info

Track history (hours):
 
Tides and Currents Weather Stations Pressure Air Temp Water Temp Dewpoint Dewpoint Depression Visibility Wind Speed Wind Dir Waves Ship Positions

Udo Maru

Last reported at 2015-May-20 07:33 UTC. Time now 2015-May-22 13:01 UTC.
Position N 34°37' E 134°56'.

Length 87 m; draft 4.9 m.

Type: Ship (hazmat cat A). MMSI: 431600499.

Date/timePositionNaut miles runAvg speedWind from/ knotsBaromVisibWave heightAir tempDewpointWater temp
2015-May-20 07:33N 34°37' E 134°56'8 7.5
2015-May-20 06:33N 34°35' E 135°05'10 9.8
2015-May-20 05:32N 34°25' E 135°03'10 9.9
2015-May-20 04:29N 34°15' E 134°59'1010.7
2015-May-20 03:33N 34°05' E 134°60'234 9.0
2015-May-19 01:33N 35°02' E 139°35'10 9.6
2015-May-19 00:34N 35°08' E 139°43'1010.0
2015-May-18 23:34N 35°18' E 139°44'7 7.2
2015-May-18 22:33N 35°25' E 139°48'4 3.8
2015-May-18 21:33N 35°22' E 139°51'0 0.0
2015-May-18 20:33N 35°22' E 139°51'0 0.0
2015-May-18 19:33N 35°22' E 139°51'0 0.0
2015-May-18 18:33N 35°22' E 139°51'0 0.0
2015-May-18 17:33N 35°22' E 139°51'0 0.0
2015-May-18 16:09N 35°22' E 139°51'0 0.0
2015-May-18 15:33N 35°21' E 139°51'2 1.8
2015-May-18 14:31N 35°22' E 139°49'0 0.1
2015-May-18 13:31N 35°22' E 139°49'0 0.1
2015-May-18 12:28N 35°22' E 139°49'0 0.0
2015-May-18 11:31N 35°22' E 139°49'0 0.0
2015-May-18 10:31N 35°22' E 139°49'0 0.0
2015-May-18 09:28N 35°22' E 139°49'7 7.5
2015-May-18 08:33N 35°29' E 139°51'1211.5
2015-May-18 07:33N 35°39' E 139°58'2 1.9
2015-May-18 06:33N 35°41' E 139°57'0 0.0
2015-May-18 05:33N 35°41' E 139°57'4 3.6
2015-May-18 04:32N 35°37' E 139°59'0 0.3
2015-May-18 03:33N 35°37' E 139°58'5 5.1
2015-May-18 02:33N 35°37' E 140°05'0 0.0
2015-May-18 01:33N 35°37' E 140°05'0 0.0
2015-May-18 00:33N 35°37' E 140°05'0 0.0
2015-May-17 23:33N 35°37' E 140°05'2 2.0
2015-May-17 22:31N 35°35' E 140°03'2 2.2
2015-May-17 21:33N 35°34' E 140°01'0 0.0
2015-May-17 20:33N 35°34' E 140°01'0 0.0
2015-May-17 19:33N 35°34' E 140°01'0 0.0
2015-May-17 18:33N 35°34' E 140°01'0 0.0
2015-May-17 17:33N 35°34' E 140°01'0 0.0
2015-May-17 16:32N 35°34' E 140°01'0 0.0
2015-May-17 15:33N 35°34' E 140°01'0 0.0
2015-May-17 14:32N 35°34' E 140°01'0 0.0
2015-May-17 13:32N 35°34' E 140°01'0 0.0
2015-May-17 12:33N 35°34' E 140°01'0 0.0
2015-May-17 11:33N 35°35' E 140°01'0 0.0
2015-May-17 10:33N 35°35' E 140°01'0 0.0
2015-May-17 09:33N 35°35' E 140°01'0 0.0
2015-May-17 08:33N 35°35' E 140°01'0 0.0
2015-May-17 07:33N 35°35' E 140°01'0 0.1
2015-May-17 06:31N 35°35' E 140°01'0 0.1
2015-May-17 05:33N 35°35' E 140°01'0 0.1
2015-May-17 04:33N 35°34' E 140°01'0 0.0
2015-May-17 03:33N 35°34' E 140°01'0 0.0
2015-May-17 02:33N 35°35' E 140°01'7 7.2
2015-May-17 01:33N 35°30' E 139°54'1111.0
2015-May-17 00:33N 35°22' E 139°45'10 9.8
2015-May-16 23:33N 35°12' E 139°47'1110.1
2015-May-16 22:30N 35°03' E 139°40'239 9.9
2015-May-15 22:25N 33°59' E 135°01'1011.5
2015-May-15 21:33N 34°09' E 134°59'1110.8
2015-May-15 20:31N 34°20' E 134°59'1111.0
2015-May-15 19:33N 34°31' E 135°02'7 6.6
2015-May-15 18:33N 34°36' E 134°57'  
2015-May-11 19:11N 34°40' E 134°37'18 1.0
2015-May-11 00:33N 34°38' E 134°59'1010.5
2015-May-10 23:33N 34°36' E 135°11'5 5.0
2015-May-10 22:33N 34°35' E 135°17'0 0.0
2015-May-10 21:33N 34°35' E 135°17'0 0.1
2015-May-10 20:33N 34°35' E 135°17'0 0.0
2015-May-10 19:34N 34°35' E 135°17'0 0.0
2015-May-10 18:34N 34°35' E 135°17'9 8.7
2015-May-10 17:34N 34°28' E 135°11'1211.4
2015-May-10 16:31N 34°19' E 135°01'1111.7
2015-May-10 15:33N 34°08' E 135°00'  
Track history (hours):
 
Tides and Currents Weather Stations Pressure Air Temp Water Temp Dewpoint Dewpoint Depression Visibility Wind Speed Wind Dir Waves Ship Positions

Udo Maru

Last reported at 2015-May-20 07:33 UTC. Time now 2015-May-22 13:01 UTC.
Position N 34°37' E 134°56'.

Length 87 m; draft 4.9 m.

Type: Ship (hazmat cat A). MMSI: 431600499.

Date/timePositionNaut miles runAvg speedWind from/ knotsBaromVisibWave heightAir tempDewpointWater temp
2015-May-20 07:33N 34°37' E 134°56'8 7.5
2015-May-20 06:33N 34°35' E 135°05'10 9.8
2015-May-20 05:32N 34°25' E 135°03'10 9.9
2015-May-20 04:29N 34°15' E 134°59'1010.7
2015-May-20 03:33N 34°05' E 134°60'234 9.0
2015-May-19 01:33N 35°02' E 139°35'10 9.6
2015-May-19 00:34N 35°08' E 139°43'1010.0
2015-May-18 23:34N 35°18' E 139°44'7 7.2
2015-May-18 22:33N 35°25' E 139°48'4 3.8
2015-May-18 21:33N 35°22' E 139°51'0 0.0
2015-May-18 20:33N 35°22' E 139°51'0 0.0
2015-May-18 19:33N 35°22' E 139°51'0 0.0
2015-May-18 18:33N 35°22' E 139°51'0 0.0
2015-May-18 17:33N 35°22' E 139°51'0 0.0
2015-May-18 16:09N 35°22' E 139°51'0 0.0
2015-May-18 15:33N 35°21' E 139°51'2 1.8
2015-May-18 14:31N 35°22' E 139°49'0 0.1
2015-May-18 13:31N 35°22' E 139°49'0 0.1
2015-May-18 12:28N 35°22' E 139°49'0 0.0
2015-May-18 11:31N 35°22' E 139°49'0 0.0
2015-May-18 10:31N 35°22' E 139°49'0 0.0
2015-May-18 09:28N 35°22' E 139°49'7 7.5
2015-May-18 08:33N 35°29' E 139°51'1211.5
2015-May-18 07:33N 35°39' E 139°58'2 1.9
2015-May-18 06:33N 35°41' E 139°57'0 0.0
2015-May-18 05:33N 35°41' E 139°57'4 3.6
2015-May-18 04:32N 35°37' E 139°59'0 0.3
2015-May-18 03:33N 35°37' E 139°58'5 5.1
2015-May-18 02:33N 35°37' E 140°05'0 0.0
2015-May-18 01:33N 35°37' E 140°05'0 0.0
2015-May-18 00:33N 35°37' E 140°05'0 0.0
2015-May-17 23:33N 35°37' E 140°05'2 2.0
2015-May-17 22:31N 35°35' E 140°03'2 2.2
2015-May-17 21:33N 35°34' E 140°01'0 0.0
2015-May-17 20:33N 35°34' E 140°01'0 0.0
2015-May-17 19:33N 35°34' E 140°01'0 0.0
2015-May-17 18:33N 35°34' E 140°01'0 0.0
2015-May-17 17:33N 35°34' E 140°01'0 0.0
2015-May-17 16:32N 35°34' E 140°01'0 0.0
2015-May-17 15:33N 35°34' E 140°01'0 0.0
2015-May-17 14:32N 35°34' E 140°01'0 0.0
2015-May-17 13:32N 35°34' E 140°01'0 0.0
2015-May-17 12:33N 35°34' E 140°01'0 0.0
2015-May-17 11:33N 35°35' E 140°01'0 0.0
2015-May-17 10:33N 35°35' E 140°01'0 0.0
2015-May-17 09:33N 35°35' E 140°01'0 0.0
2015-May-17 08:33N 35°35' E 140°01'0 0.0
2015-May-17 07:33N 35°35' E 140°01'0 0.1
2015-May-17 06:31N 35°35' E 140°01'0 0.1
2015-May-17 05:33N 35°35' E 140°01'0 0.1
2015-May-17 04:33N 35°34' E 140°01'0 0.0
2015-May-17 03:33N 35°34' E 140°01'0 0.0
2015-May-17 02:33N 35°35' E 140°01'7 7.2
2015-May-17 01:33N 35°30' E 139°54'1111.0
2015-May-17 00:33N 35°22' E 139°45'10 9.8
2015-May-16 23:33N 35°12' E 139°47'1110.1
2015-May-16 22:30N 35°03' E 139°40'239 9.9
2015-May-15 22:25N 33°59' E 135°01'1011.5
2015-May-15 21:33N 34°09' E 134°59'1110.8
2015-May-15 20:31N 34°20' E 134°59'1111.0
2015-May-15 19:33N 34°31' E 135°02'7 6.6
2015-May-15 18:33N 34°36' E 134°57'  
2015-May-11 19:11N 34°40' E 134°37'18 1.0
2015-May-11 00:33N 34°38' E 134°59'1010.5
2015-May-10 23:33N 34°36' E 135°11'5 5.0
2015-May-10 22:33N 34°35' E 135°17'0 0.0
2015-May-10 21:33N 34°35' E 135°17'0 0.1
2015-May-10 20:33N 34°35' E 135°17'0 0.0
2015-May-10 19:34N 34°35' E 135°17'0 0.0
2015-May-10 18:34N 34°35' E 135°17'9 8.7
2015-May-10 17:34N 34°28' E 135°11'1211.4
2015-May-10 16:31N 34°19' E 135°01'1111.7
2015-May-10 15:33N 34°08' E 135°00'  

Dump ship's entire track history